Majsk, Russia
Current Conditions -  °F | °C
As of 9:00 PM on Tuesday 27 Jan 2015 (Local Time) from USNN Reporting Station
Light Snow Light Snow  
Wind Chill:   Ceiling: 1500
Heat Index: 16°   Visibility: 5mi
Dew Point: 12°   Wind: 9mph
Humidity: 86%   Direction: 250°WSW
Pressure: 30"   Gusts: NA
Location:  57.78°N, 77.28°E
Report Text: USNN 271400Z 25004MPS 8000 -SN OVC015 M09/M11 Q1016 NOSIG RMKQFE757 21410532
Loading
Personal Weather Stations






























Interactive Weather Map New forecast layout! Learn more

10-Day Weather Forecast

Advertisements
Track Severe Weather on mobile